sensor_id;sensor_type;location;lat;lon;timestamp;P1;durP1;ratioP1;P2;durP2;ratioP2
5149;SDS011;2593;52.466;13.436;2023-02-15T00:01:23;48.97;;;21.73;;
5149;SDS011;2593;52.466;13.436;2023-02-15T00:03:49;49.20;;;23.73;;
5149;SDS011;2593;52.466;13.436;2023-02-15T00:06:15;51.47;;;23.47;;
5149;SDS011;2593;52.466;13.436;2023-02-15T00:08:41;55.43;;;23.83;;
5149;SDS011;2593;52.466;13.436;2023-02-15T00:11:07;53.87;;;24.03;;
5149;SDS011;2593;52.466;13.436;2023-02-15T00:13:35;52.13;;;24.13;;
5149;SDS011;2593;52.466;13.436;2023-02-15T00:16:05;46.30;;;23.07;;
5149;SDS011;2593;52.466;13.436;2023-02-15T00:18:32;49.93;;;23.73;;
5149;SDS011;2593;52.466;13.436;2023-02-15T00:20:58;49.87;;;24.77;;
5149;SDS011;2593;52.466;13.436;2023-02-15T00:23:23;52.80;;;25.67;;
5149;SDS011;2593;52.466;13.436;2023-02-15T00:25:51;57.97;;;25.50;;
5149;SDS011;2593;52.466;13.436;2023-02-15T00:28:16;54.03;;;26.80;;
5149;SDS011;2593;52.466;13.436;2023-02-15T00:30:42;51.87;;;24.73;;
5149;SDS011;2593;52.466;13.436;2023-02-15T00:33:07;72.13;;;26.23;;
5149;SDS011;2593;52.466;13.436;2023-02-15T00:35:33;64.43;;;28.50;;
5149;SDS011;2593;52.466;13.436;2023-02-15T00:37:59;72.27;;;28.10;;
5149;SDS011;2593;52.466;13.436;2023-02-15T00:40:24;52.73;;;26.10;;
5149;SDS011;2593;52.466;13.436;2023-02-15T00:42:50;53.83;;;25.83;;
5149;SDS011;2593;52.466;13.436;2023-02-15T00:45:15;57.67;;;26.03;;
5149;SDS011;2593;52.466;13.436;2023-02-15T00:47:41;51.43;;;24.50;;
5149;SDS011;2593;52.466;13.436;2023-02-15T00:50:07;55.23;;;26.03;;
5149;SDS011;2593;52.466;13.436;2023-02-15T00:52:32;56.83;;;26.93;;
5149;SDS011;2593;52.466;13.436;2023-02-15T00:54:58;50.53;;;25.97;;
5149;SDS011;2593;52.466;13.436;2023-02-15T00:57:23;48.63;;;24.70;;
5149;SDS011;2593;52.466;13.436;2023-02-15T00:59:49;57.70;;;25.07;;
5149;SDS011;2593;52.466;13.436;2023-02-15T01:02:15;50.87;;;25.97;;
5149;SDS011;2593;52.466;13.436;2023-02-15T01:04:40;54.07;;;25.63;;
5149;SDS011;2593;52.466;13.436;2023-02-15T01:07:06;49.70;;;23.67;;
5149;SDS011;2593;52.466;13.436;2023-02-15T01:09:32;52.63;;;25.73;;
5149;SDS011;2593;52.466;13.436;2023-02-15T01:11:57;60.67;;;25.30;;
5149;SDS011;2593;52.466;13.436;2023-02-15T01:14:23;61.57;;;25.43;;
5149;SDS011;2593;52.466;13.436;2023-02-15T01:16:49;48.47;;;25.00;;
5149;SDS011;2593;52.466;13.436;2023-02-15T01:19:14;63.00;;;26.90;;
5149;SDS011;2593;52.466;13.436;2023-02-15T01:21:40;57.60;;;26.33;;
5149;SDS011;2593;52.466;13.436;2023-02-15T01:24:10;51.77;;;24.30;;
5149;SDS011;2593;52.466;13.436;2023-02-15T01:26:37;61.87;;;24.87;;
5149;SDS011;2593;52.466;13.436;2023-02-15T01:29:03;57.03;;;27.40;;
5149;SDS011;2593;52.466;13.436;2023-02-15T01:31:29;60.07;;;27.83;;
5149;SDS011;2593;52.466;13.436;2023-02-15T01:33:54;60.70;;;27.87;;
5149;SDS011;2593;52.466;13.436;2023-02-15T01:36:20;59.93;;;27.23;;
5149;SDS011;2593;52.466;13.436;2023-02-15T01:38:46;58.23;;;26.57;;
5149;SDS011;2593;52.466;13.436;2023-02-15T01:41:12;60.73;;;26.67;;
5149;SDS011;2593;52.466;13.436;2023-02-15T01:43:58;60.93;;;27.03;;
5149;SDS011;2593;52.466;13.436;2023-02-15T01:46:39;54.60;;;25.20;;
5149;SDS011;2593;52.466;13.436;2023-02-15T01:49:11;73.20;;;28.50;;
5149;SDS011;2593;52.466;13.436;2023-02-15T01:51:42;57.33;;;26.30;;
5149;SDS011;2593;52.466;13.436;2023-02-15T01:54:20;58.67;;;26.67;;
5149;SDS011;2593;52.466;13.436;2023-02-15T01:56:51;65.23;;;29.00;;
5149;SDS011;2593;52.466;13.436;2023-02-15T01:59:20;58.93;;;27.70;;
5149;SDS011;2593;52.466;13.436;2023-02-15T02:01:48;63.77;;;26.70;;
5149;SDS011;2593;52.466;13.436;2023-02-15T02:04:17;67.63;;;29.17;;
5149;SDS011;2593;52.466;13.436;2023-02-15T02:07:00;69.40;;;27.87;;
5149;SDS011;2593;52.466;13.436;2023-02-15T02:09:27;65.10;;;28.10;;
5149;SDS011;2593;52.466;13.436;2023-02-15T02:11:53;65.57;;;28.30;;
5149;SDS011;2593;52.466;13.436;2023-02-15T02:14:19;62.33;;;27.20;;
5149;SDS011;2593;52.466;13.436;2023-02-15T02:16:55;63.97;;;28.43;;
5149;SDS011;2593;52.466;13.436;2023-02-15T02:50:08;85.67;;;31.20;;
5149;SDS011;2593;52.466;13.436;2023-02-15T02:57:53;83.13;;;32.60;;
5149;SDS011;2593;52.466;13.436;2023-02-15T03:00:23;79.20;;;34.47;;
5149;SDS011;2593;52.466;13.436;2023-02-15T03:02:52;98.33;;;35.47;;
5149;SDS011;2593;52.466;13.436;2023-02-15T03:05:23;81.70;;;33.07;;
5149;SDS011;2593;52.466;13.436;2023-02-15T03:07:52;92.23;;;37.37;;
5149;SDS011;2593;52.466;13.436;2023-02-15T03:10:20;100.67;;;35.63;;
5149;SDS011;2593;52.466;13.436;2023-02-15T03:12:48;83.37;;;34.77;;
5149;SDS011;2593;52.466;13.436;2023-02-15T03:15:19;102.80;;;38.13;;
5149;SDS011;2593;52.466;13.436;2023-02-15T03:18:16;90.37;;;36.20;;
5149;SDS011;2593;52.466;13.436;2023-02-15T03:20:46;91.63;;;33.70;;
5149;SDS011;2593;52.466;13.436;2023-02-15T03:23:16;109.90;;;36.53;;
5149;SDS011;2593;52.466;13.436;2023-02-15T03:25:48;88.33;;;33.90;;
5149;SDS011;2593;52.466;13.436;2023-02-15T03:28:19;102.57;;;35.57;;
5149;SDS011;2593;52.466;13.436;2023-02-15T03:30:52;93.57;;;33.93;;
5149;SDS011;2593;52.466;13.436;2023-02-15T03:33:20;87.07;;;32.07;;
5149;SDS011;2593;52.466;13.436;2023-02-15T03:36:01;90.10;;;34.47;;
5149;SDS011;2593;52.466;13.436;2023-02-15T03:38:54;101.03;;;36.03;;
5149;SDS011;2593;52.466;13.436;2023-02-15T03:41:55;91.20;;;34.50;;
5149;SDS011;2593;52.466;13.436;2023-02-15T03:44:27;93.87;;;33.00;;
5149;SDS011;2593;52.466;13.436;2023-02-15T03:46:59;94.07;;;34.37;;
5149;SDS011;2593;52.466;13.436;2023-02-15T03:49:34;97.77;;;35.23;;
5149;SDS011;2593;52.466;13.436;2023-02-15T03:52:08;78.03;;;31.70;;
5149;SDS011;2593;52.466;13.436;2023-02-15T03:54:35;93.97;;;33.70;;
5149;SDS011;2593;52.466;13.436;2023-02-15T03:57:16;79.70;;;31.00;;
5149;SDS011;2593;52.466;13.436;2023-02-15T04:00:18;80.07;;;31.77;;
5149;SDS011;2593;52.466;13.436;2023-02-15T04:05:40;89.33;;;33.17;;
5149;SDS011;2593;52.466;13.436;2023-02-15T04:08:09;92.57;;;33.40;;
5149;SDS011;2593;52.466;13.436;2023-02-15T04:10:35;95.67;;;35.97;;
5149;SDS011;2593;52.466;13.436;2023-02-15T04:13:17;95.33;;;33.90;;
5149;SDS011;2593;52.466;13.436;2023-02-15T04:15:46;90.10;;;36.13;;
5149;SDS011;2593;52.466;13.436;2023-02-15T04:18:37;99.47;;;35.53;;
5149;SDS011;2593;52.466;13.436;2023-02-15T04:21:24;92.07;;;32.83;;
5149;SDS011;2593;52.466;13.436;2023-02-15T04:24:10;90.10;;;35.43;;
5149;SDS011;2593;52.466;13.436;2023-02-15T04:26:55;90.53;;;32.20;;
5149;SDS011;2593;52.466;13.436;2023-02-15T04:29:21;84.57;;;32.30;;
5149;SDS011;2593;52.466;13.436;2023-02-15T04:31:48;88.87;;;32.27;;
5149;SDS011;2593;52.466;13.436;2023-02-15T04:34:14;90.20;;;34.00;;
5149;SDS011;2593;52.466;13.436;2023-02-15T04:36:40;92.87;;;33.40;;
5149;SDS011;2593;52.466;13.436;2023-02-15T04:39:07;96.77;;;34.43;;
5149;SDS011;2593;52.466;13.436;2023-02-15T04:41:33;94.73;;;34.20;;
5149;SDS011;2593;52.466;13.436;2023-02-15T04:43:59;94.47;;;34.80;;
5149;SDS011;2593;52.466;13.436;2023-02-15T04:46:25;82.63;;;33.57;;
5149;SDS011;2593;52.466;13.436;2023-02-15T04:48:52;105.50;;;35.93;;
5149;SDS011;2593;52.466;13.436;2023-02-15T04:51:18;97.33;;;33.77;;
5149;SDS011;2593;52.466;13.436;2023-02-15T04:53:44;97.30;;;36.17;;
5149;SDS011;2593;52.466;13.436;2023-02-15T04:56:09;87.07;;;33.20;;
5149;SDS011;2593;52.466;13.436;2023-02-15T04:58:35;89.40;;;33.00;;
5149;SDS011;2593;52.466;13.436;2023-02-15T05:01:02;85.10;;;33.97;;
5149;SDS011;2593;52.466;13.436;2023-02-15T05:03:28;88.37;;;33.93;;
5149;SDS011;2593;52.466;13.436;2023-02-15T05:05:53;88.07;;;32.33;;
5149;SDS011;2593;52.466;13.436;2023-02-15T05:08:19;100.03;;;35.37;;
5149;SDS011;2593;52.466;13.436;2023-02-15T05:10:47;96.47;;;33.37;;
5149;SDS011;2593;52.466;13.436;2023-02-15T05:13:13;91.27;;;30.73;;
5149;SDS011;2593;52.466;13.436;2023-02-15T05:15:39;110.03;;;31.83;;
5149;SDS011;2593;52.466;13.436;2023-02-15T05:18:04;94.77;;;33.93;;
5149;SDS011;2593;52.466;13.436;2023-02-15T05:20:31;102.00;;;34.20;;
5149;SDS011;2593;52.466;13.436;2023-02-15T05:22:57;92.37;;;32.93;;
5149;SDS011;2593;52.466;13.436;2023-02-15T05:25:22;86.70;;;32.43;;
5149;SDS011;2593;52.466;13.436;2023-02-15T05:28:08;94.53;;;33.80;;
5149;SDS011;2593;52.466;13.436;2023-02-15T05:30:49;84.40;;;32.20;;
5149;SDS011;2593;52.466;13.436;2023-02-15T05:33:22;103.93;;;34.43;;
5149;SDS011;2593;52.466;13.436;2023-02-15T05:35:47;108.50;;;36.50;;
5149;SDS011;2593;52.466;13.436;2023-02-15T05:38:13;105.53;;;33.90;;
5149;SDS011;2593;52.466;13.436;2023-02-15T05:40:39;91.47;;;34.30;;
5149;SDS011;2593;52.466;13.436;2023-02-15T05:43:04;99.00;;;34.10;;
5149;SDS011;2593;52.466;13.436;2023-02-15T05:45:30;135.63;;;37.10;;
5149;SDS011;2593;52.466;13.436;2023-02-15T05:47:56;126.67;;;34.80;;
5149;SDS011;2593;52.466;13.436;2023-02-15T05:50:23;111.37;;;36.53;;
5149;SDS011;2593;52.466;13.436;2023-02-15T05:52:49;109.03;;;35.20;;
5149;SDS011;2593;52.466;13.436;2023-02-15T05:55:15;135.20;;;35.57;;
5149;SDS011;2593;52.466;13.436;2023-02-15T05:57:41;114.53;;;35.37;;
5149;SDS011;2593;52.466;13.436;2023-02-15T06:00:07;124.00;;;37.10;;
5149;SDS011;2593;52.466;13.436;2023-02-15T06:02:35;157.47;;;35.73;;
5149;SDS011;2593;52.466;13.436;2023-02-15T06:05:01;166.17;;;35.97;;
5149;SDS011;2593;52.466;13.436;2023-02-15T06:07:27;146.73;;;37.93;;
5149;SDS011;2593;52.466;13.436;2023-02-15T06:09:53;136.47;;;36.07;;
5149;SDS011;2593;52.466;13.436;2023-02-15T06:12:19;153.90;;;38.00;;
5149;SDS011;2593;52.466;13.436;2023-02-15T06:14:44;168.37;;;37.33;;
5149;SDS011;2593;52.466;13.436;2023-02-15T06:17:10;282.23;;;38.30;;
5149;SDS011;2593;52.466;13.436;2023-02-15T06:19:36;208.50;;;37.10;;
5149;SDS011;2593;52.466;13.436;2023-02-15T06:22:01;251.70;;;37.97;;
5149;SDS011;2593;52.466;13.436;2023-02-15T06:24:27;185.30;;;37.40;;
5149;SDS011;2593;52.466;13.436;2023-02-15T06:26:52;274.93;;;40.63;;
5149;SDS011;2593;52.466;13.436;2023-02-15T06:29:18;253.27;;;36.80;;
5149;SDS011;2593;52.466;13.436;2023-02-15T06:31:44;193.77;;;38.10;;
5149;SDS011;2593;52.466;13.436;2023-02-15T06:34:09;142.43;;;36.70;;
5149;SDS011;2593;52.466;13.436;2023-02-15T06:36:35;126.27;;;35.73;;
5149;SDS011;2593;52.466;13.436;2023-02-15T06:39:02;133.20;;;37.40;;
5149;SDS011;2593;52.466;13.436;2023-02-15T06:41:28;157.10;;;38.57;;
5149;SDS011;2593;52.466;13.436;2023-02-15T06:43:53;123.57;;;37.20;;
5149;SDS011;2593;52.466;13.436;2023-02-15T06:46:19;155.20;;;37.73;;
5149;SDS011;2593;52.466;13.436;2023-02-15T06:48:44;134.33;;;35.57;;
5149;SDS011;2593;52.466;13.436;2023-02-15T06:51:10;124.83;;;36.80;;
5149;SDS011;2593;52.466;13.436;2023-02-15T06:53:36;226.47;;;37.60;;
5149;SDS011;2593;52.466;13.436;2023-02-15T06:56:02;116.13;;;35.30;;
5149;SDS011;2593;52.466;13.436;2023-02-15T06:58:31;125.37;;;36.30;;
5149;SDS011;2593;52.466;13.436;2023-02-15T07:00:57;118.37;;;36.07;;
5149;SDS011;2593;52.466;13.436;2023-02-15T07:03:23;128.20;;;35.60;;
5149;SDS011;2593;52.466;13.436;2023-02-15T07:05:49;195.53;;;35.40;;
5149;SDS011;2593;52.466;13.436;2023-02-15T07:08:23;156.67;;;35.47;;
5149;SDS011;2593;52.466;13.436;2023-02-15T07:10:49;122.27;;;34.57;;
5149;SDS011;2593;52.466;13.436;2023-02-15T07:13:19;127.87;;;38.03;;
5149;SDS011;2593;52.466;13.436;2023-02-15T07:15:47;119.60;;;33.57;;
5149;SDS011;2593;52.466;13.436;2023-02-15T07:18:13;145.50;;;36.10;;
5149;SDS011;2593;52.466;13.436;2023-02-15T07:20:38;88.03;;;32.43;;
5149;SDS011;2593;52.466;13.436;2023-02-15T07:23:06;99.27;;;34.80;;
5149;SDS011;2593;52.466;13.436;2023-02-15T07:25:33;109.33;;;33.90;;
5149;SDS011;2593;52.466;13.436;2023-02-15T07:27:59;108.93;;;34.50;;
5149;SDS011;2593;52.466;13.436;2023-02-15T07:30:27;152.23;;;33.73;;
5149;SDS011;2593;52.466;13.436;2023-02-15T07:32:57;135.83;;;33.33;;
5149;SDS011;2593;52.466;13.436;2023-02-15T07:35:46;119.00;;;33.20;;
5149;SDS011;2593;52.466;13.436;2023-02-15T07:38:12;125.87;;;33.17;;
5149;SDS011;2593;52.466;13.436;2023-02-15T07:40:38;94.27;;;30.97;;
5149;SDS011;2593;52.466;13.436;2023-02-15T07:43:03;115.40;;;31.90;;
5149;SDS011;2593;52.466;13.436;2023-02-15T07:45:29;107.27;;;30.73;;
5149;SDS011;2593;52.466;13.436;2023-02-15T07:47:55;120.43;;;34.13;;
5149;SDS011;2593;52.466;13.436;2023-02-15T07:50:25;115.07;;;32.53;;
5149;SDS011;2593;52.466;13.436;2023-02-15T07:52:50;100.07;;;33.80;;
5149;SDS011;2593;52.466;13.436;2023-02-15T07:55:16;99.10;;;32.57;;
5149;SDS011;2593;52.466;13.436;2023-02-15T07:57:43;104.40;;;32.73;;
5149;SDS011;2593;52.466;13.436;2023-02-15T08:00:11;109.83;;;31.80;;
5149;SDS011;2593;52.466;13.436;2023-02-15T08:02:41;92.67;;;30.93;;
5149;SDS011;2593;52.466;13.436;2023-02-15T08:05:12;86.40;;;30.50;;
5149;SDS011;2593;52.466;13.436;2023-02-15T08:07:38;83.90;;;30.70;;
5149;SDS011;2593;52.466;13.436;2023-02-15T08:10:03;74.33;;;27.00;;
5149;SDS011;2593;52.466;13.436;2023-02-15T08:12:29;98.90;;;31.47;;
5149;SDS011;2593;52.466;13.436;2023-02-15T08:14:55;90.30;;;30.47;;
5149;SDS011;2593;52.466;13.436;2023-02-15T08:17:21;87.10;;;32.57;;
5149;SDS011;2593;52.466;13.436;2023-02-15T08:19:46;89.43;;;30.00;;
5149;SDS011;2593;52.466;13.436;2023-02-15T08:22:13;93.60;;;31.80;;
5149;SDS011;2593;52.466;13.436;2023-02-15T08:24:39;96.70;;;32.07;;
5149;SDS011;2593;52.466;13.436;2023-02-15T08:27:06;89.03;;;28.77;;
5149;SDS011;2593;52.466;13.436;2023-02-15T08:29:34;101.93;;;27.37;;
5149;SDS011;2593;52.466;13.436;2023-02-15T08:32:04;87.97;;;28.90;;
5149;SDS011;2593;52.466;13.436;2023-02-15T08:34:33;109.47;;;27.70;;
5149;SDS011;2593;52.466;13.436;2023-02-15T08:37:00;74.07;;;29.20;;
5149;SDS011;2593;52.466;13.436;2023-02-15T08:39:26;81.57;;;29.77;;
5149;SDS011;2593;52.466;13.436;2023-02-15T08:41:51;91.53;;;28.83;;
5149;SDS011;2593;52.466;13.436;2023-02-15T08:44:18;73.30;;;28.50;;
5149;SDS011;2593;52.466;13.436;2023-02-15T08:46:45;75.10;;;29.50;;
5149;SDS011;2593;52.466;13.436;2023-02-15T08:49:14;77.80;;;28.70;;
5149;SDS011;2593;52.466;13.436;2023-02-15T08:51:42;82.50;;;28.13;;
5149;SDS011;2593;52.466;13.436;2023-02-15T08:54:09;62.90;;;26.43;;
5149;SDS011;2593;52.466;13.436;2023-02-15T08:56:38;76.67;;;26.77;;
5149;SDS011;2593;52.466;13.436;2023-02-15T08:59:05;64.07;;;25.70;;
5149;SDS011;2593;52.466;13.436;2023-02-15T09:01:36;87.10;;;35.50;;
5149;SDS011;2593;52.466;13.436;2023-02-15T09:04:04;58.83;;;25.00;;
5149;SDS011;2593;52.466;13.436;2023-02-15T09:06:33;63.90;;;24.10;;
5149;SDS011;2593;52.466;13.436;2023-02-15T09:08:59;57.27;;;23.67;;
5149;SDS011;2593;52.466;13.436;2023-02-15T09:11:26;65.40;;;24.50;;
5149;SDS011;2593;52.466;13.436;2023-02-15T09:13:58;60.00;;;25.40;;
5149;SDS011;2593;52.466;13.436;2023-02-15T09:16:26;68.57;;;26.60;;
5149;SDS011;2593;52.466;13.436;2023-02-15T09:18:54;63.53;;;24.10;;
5149;SDS011;2593;52.466;13.436;2023-02-15T09:21:23;55.70;;;23.17;;
5149;SDS011;2593;52.466;13.436;2023-02-15T09:23:50;51.13;;;23.37;;
5149;SDS011;2593;52.466;13.436;2023-02-15T09:26:18;52.43;;;21.97;;
5149;SDS011;2593;52.466;13.436;2023-02-15T09:28:45;70.10;;;24.50;;
5149;SDS011;2593;52.466;13.436;2023-02-15T09:31:16;58.83;;;26.00;;
5149;SDS011;2593;52.466;13.436;2023-02-15T09:33:43;52.27;;;22.47;;
5149;SDS011;2593;52.466;13.436;2023-02-15T09:36:18;54.13;;;21.73;;
5149;SDS011;2593;52.466;13.436;2023-02-15T09:39:06;51.43;;;23.77;;
5149;SDS011;2593;52.466;13.436;2023-02-15T10:11:26;69.13;;;29.03;;
5149;SDS011;2593;52.466;13.436;2023-02-15T10:21:51;48.30;;;22.80;;
5149;SDS011;2593;52.466;13.436;2023-02-15T10:24:42;48.90;;;24.10;;
5149;SDS011;2593;52.466;13.436;2023-02-15T10:27:36;48.70;;;23.53;;
5149;SDS011;2593;52.466;13.436;2023-02-15T10:30:10;50.73;;;22.93;;
5149;SDS011;2593;52.466;13.436;2023-02-15T10:38:21;51.63;;;23.60;;
5149;SDS011;2593;52.466;13.436;2023-02-15T10:46:37;52.50;;;23.13;;
5149;SDS011;2593;52.466;13.436;2023-02-15T10:52:39;52.77;;;24.80;;
5149;SDS011;2593;52.466;13.436;2023-02-15T11:06:29;55.77;;;24.93;;
5149;SDS011;2593;52.466;13.436;2023-02-15T11:08:59;44.47;;;23.00;;
5149;SDS011;2593;52.466;13.436;2023-02-15T11:11:32;53.10;;;23.93;;
5149;SDS011;2593;52.466;13.436;2023-02-15T11:14:19;58.93;;;25.20;;
5149;SDS011;2593;52.466;13.436;2023-02-15T11:16:57;59.47;;;25.03;;
5149;SDS011;2593;52.466;13.436;2023-02-15T11:19:31;60.13;;;25.40;;
5149;SDS011;2593;52.466;13.436;2023-02-15T11:22:04;53.40;;;24.97;;
5149;SDS011;2593;52.466;13.436;2023-02-15T11:24:32;50.77;;;23.90;;
5149;SDS011;2593;52.466;13.436;2023-02-15T11:29:38;50.33;;;25.53;;
5149;SDS011;2593;52.466;13.436;2023-02-15T11:32:31;55.67;;;25.20;;
5149;SDS011;2593;52.466;13.436;2023-02-15T11:35:01;47.17;;;23.63;;
5149;SDS011;2593;52.466;13.436;2023-02-15T11:40:43;44.93;;;22.27;;
5149;SDS011;2593;52.466;13.436;2023-02-15T11:45:51;49.53;;;21.60;;
5149;SDS011;2593;52.466;13.436;2023-02-15T11:48:16;55.27;;;24.80;;
5149;SDS011;2593;52.466;13.436;2023-02-15T11:50:43;49.83;;;24.37;;
5149;SDS011;2593;52.466;13.436;2023-02-15T11:53:11;51.10;;;22.63;;
5149;SDS011;2593;52.466;13.436;2023-02-15T11:55:40;52.67;;;24.47;;
5149;SDS011;2593;52.466;13.436;2023-02-15T12:03:39;50.40;;;23.87;;
5149;SDS011;2593;52.466;13.436;2023-02-15T12:06:28;51.87;;;22.30;;
5149;SDS011;2593;52.466;13.436;2023-02-15T12:09:10;48.33;;;23.77;;
5149;SDS011;2593;52.466;13.436;2023-02-15T12:11:46;60.10;;;26.00;;
5149;SDS011;2593;52.466;13.436;2023-02-15T12:14:12;51.20;;;23.30;;
5149;SDS011;2593;52.466;13.436;2023-02-15T12:16:42;64.20;;;26.77;;
5149;SDS011;2593;52.466;13.436;2023-02-15T12:19:23;46.93;;;23.70;;
5149;SDS011;2593;52.466;13.436;2023-02-15T12:21:57;48.10;;;24.10;;
5149;SDS011;2593;52.466;13.436;2023-02-15T12:24:27;49.20;;;24.17;;
5149;SDS011;2593;52.466;13.436;2023-02-15T12:27:02;57.70;;;25.80;;
5149;SDS011;2593;52.466;13.436;2023-02-15T12:29:35;54.13;;;24.40;;
5149;SDS011;2593;52.466;13.436;2023-02-15T12:32:06;53.30;;;24.03;;
5149;SDS011;2593;52.466;13.436;2023-02-15T12:35:02;58.30;;;25.40;;
5149;SDS011;2593;52.466;13.436;2023-02-15T12:37:39;59.10;;;24.93;;
5149;SDS011;2593;52.466;13.436;2023-02-15T12:40:23;58.67;;;24.93;;
5149;SDS011;2593;52.466;13.436;2023-02-15T12:42:51;49.93;;;22.67;;
5149;SDS011;2593;52.466;13.436;2023-02-15T12:45:27;48.07;;;22.50;;
5149;SDS011;2593;52.466;13.436;2023-02-15T12:50:37;53.30;;;25.73;;
5149;SDS011;2593;52.466;13.436;2023-02-15T12:53:23;59.23;;;24.70;;
5149;SDS011;2593;52.466;13.436;2023-02-15T12:55:58;53.83;;;24.83;;
5149;SDS011;2593;52.466;13.436;2023-02-15T12:58:26;45.17;;;23.53;;
5149;SDS011;2593;52.466;13.436;2023-02-15T13:06:45;55.57;;;23.63;;
5149;SDS011;2593;52.466;13.436;2023-02-15T13:11:44;50.53;;;22.67;;
5149;SDS011;2593;52.466;13.436;2023-02-15T13:14:21;47.23;;;23.43;;
5149;SDS011;2593;52.466;13.436;2023-02-15T13:16:56;41.83;;;22.33;;
5149;SDS011;2593;52.466;13.436;2023-02-15T13:22:14;43.53;;;22.17;;
5149;SDS011;2593;52.466;13.436;2023-02-15T13:24:43;48.43;;;24.30;;
5149;SDS011;2593;52.466;13.436;2023-02-15T13:27:22;52.90;;;23.43;;
5149;SDS011;2593;52.466;13.436;2023-02-15T13:29:51;47.93;;;22.03;;
5149;SDS011;2593;52.466;13.436;2023-02-15T13:32:38;42.63;;;22.87;;
5149;SDS011;2593;52.466;13.436;2023-02-15T13:35:06;48.87;;;22.83;;
5149;SDS011;2593;52.466;13.436;2023-02-15T13:40:40;39.60;;;21.83;;
5149;SDS011;2593;52.466;13.436;2023-02-15T13:43:38;42.63;;;21.13;;
5149;SDS011;2593;52.466;13.436;2023-02-15T14:04:47;41.70;;;20.70;;
5149;SDS011;2593;52.466;13.436;2023-02-15T14:13:15;36.73;;;17.37;;
5149;SDS011;2593;52.466;13.436;2023-02-15T14:16:03;37.60;;;19.37;;
5149;SDS011;2593;52.466;13.436;2023-02-15T14:18:46;49.03;;;21.20;;
5149;SDS011;2593;52.466;13.436;2023-02-15T14:21:26;40.80;;;20.80;;
5149;SDS011;2593;52.466;13.436;2023-02-15T14:31:59;39.43;;;21.87;;
5149;SDS011;2593;52.466;13.436;2023-02-15T14:37:10;40.87;;;21.57;;
5149;SDS011;2593;52.466;13.436;2023-02-15T14:42:27;38.70;;;19.87;;
5149;SDS011;2593;52.466;13.436;2023-02-15T14:45:28;34.93;;;19.87;;
5149;SDS011;2593;52.466;13.436;2023-02-15T14:48:08;37.47;;;18.93;;
5149;SDS011;2593;52.466;13.436;2023-02-15T14:50:50;53.83;;;21.00;;
5149;SDS011;2593;52.466;13.436;2023-02-15T14:53:24;42.73;;;21.57;;
5149;SDS011;2593;52.466;13.436;2023-02-15T14:58:38;34.40;;;19.03;;
5149;SDS011;2593;52.466;13.436;2023-02-15T15:01:25;42.80;;;21.90;;
5149;SDS011;2593;52.466;13.436;2023-02-15T15:03:55;64.70;;;32.70;;
5149;SDS011;2593;52.466;13.436;2023-02-15T15:06:34;39.17;;;21.53;;
5149;SDS011;2593;52.466;13.436;2023-02-15T15:11:37;39.77;;;20.07;;
5149;SDS011;2593;52.466;13.436;2023-02-15T15:14:05;35.43;;;19.47;;
5149;SDS011;2593;52.466;13.436;2023-02-15T15:19:02;34.40;;;18.90;;
5149;SDS011;2593;52.466;13.436;2023-02-15T15:35:27;37.17;;;18.40;;
5149;SDS011;2593;52.466;13.436;2023-02-15T15:49:48;36.73;;;18.30;;
5149;SDS011;2593;52.466;13.436;2023-02-15T15:52:15;33.03;;;17.87;;
5149;SDS011;2593;52.466;13.436;2023-02-15T15:54:46;33.47;;;17.30;;
5149;SDS011;2593;52.466;13.436;2023-02-15T15:57:19;32.60;;;17.30;;
5149;SDS011;2593;52.466;13.436;2023-02-15T15:59:57;32.37;;;17.80;;
5149;SDS011;2593;52.466;13.436;2023-02-15T16:02:26;33.37;;;18.27;;
5149;SDS011;2593;52.466;13.436;2023-02-15T16:04:52;33.00;;;17.73;;
5149;SDS011;2593;52.466;13.436;2023-02-15T16:09:57;32.27;;;18.27;;
5149;SDS011;2593;52.466;13.436;2023-02-15T16:12:29;33.20;;;16.40;;
5149;SDS011;2593;52.466;13.436;2023-02-15T16:14:58;34.30;;;16.47;;
5149;SDS011;2593;52.466;13.436;2023-02-15T16:17:29;34.00;;;18.67;;
5149;SDS011;2593;52.466;13.436;2023-02-15T16:20:01;31.77;;;16.77;;
5149;SDS011;2593;52.466;13.436;2023-02-15T16:22:49;31.00;;;16.40;;
5149;SDS011;2593;52.466;13.436;2023-02-15T16:28:08;28.37;;;16.53;;
5149;SDS011;2593;52.466;13.436;2023-02-15T16:30:37;27.43;;;16.27;;
5149;SDS011;2593;52.466;13.436;2023-02-15T16:33:08;32.53;;;15.47;;
5149;SDS011;2593;52.466;13.436;2023-02-15T16:35:36;30.63;;;17.07;;
5149;SDS011;2593;52.466;13.436;2023-02-15T16:38:03;29.43;;;16.47;;
5149;SDS011;2593;52.466;13.436;2023-02-15T16:40:46;33.23;;;17.77;;
5149;SDS011;2593;52.466;13.436;2023-02-15T16:43:26;29.07;;;15.37;;
5149;SDS011;2593;52.466;13.436;2023-02-15T16:45:56;27.67;;;15.77;;
5149;SDS011;2593;52.466;13.436;2023-02-15T16:48:28;29.73;;;15.60;;
5149;SDS011;2593;52.466;13.436;2023-02-15T16:50:54;41.07;;;20.67;;
5149;SDS011;2593;52.466;13.436;2023-02-15T16:53:23;58.80;;;22.20;;
5149;SDS011;2593;52.466;13.436;2023-02-15T16:56:01;34.60;;;18.33;;
5149;SDS011;2593;52.466;13.436;2023-02-15T17:01:14;31.80;;;16.97;;
5149;SDS011;2593;52.466;13.436;2023-02-15T17:03:41;39.63;;;19.33;;
5149;SDS011;2593;52.466;13.436;2023-02-15T17:06:20;55.33;;;23.03;;
5149;SDS011;2593;52.466;13.436;2023-02-15T17:09:02;53.43;;;19.30;;
5149;SDS011;2593;52.466;13.436;2023-02-15T17:11:40;42.23;;;18.63;;
5149;SDS011;2593;52.466;13.436;2023-02-15T17:16:41;38.03;;;19.73;;
5149;SDS011;2593;52.466;13.436;2023-02-15T17:19:15;36.67;;;20.23;;
5149;SDS011;2593;52.466;13.436;2023-02-15T17:24:34;48.00;;;21.90;;
5149;SDS011;2593;52.466;13.436;2023-02-15T17:27:11;39.20;;;21.37;;
5149;SDS011;2593;52.466;13.436;2023-02-15T17:29:43;34.10;;;19.27;;
5149;SDS011;2593;52.466;13.436;2023-02-15T17:32:21;36.70;;;18.60;;
5149;SDS011;2593;52.466;13.436;2023-02-15T17:37:42;44.03;;;18.53;;
5149;SDS011;2593;52.466;13.436;2023-02-15T17:40:18;34.10;;;17.57;;
5149;SDS011;2593;52.466;13.436;2023-02-15T17:42:44;37.93;;;16.83;;
5149;SDS011;2593;52.466;13.436;2023-02-15T17:45:10;37.27;;;17.40;;
5149;SDS011;2593;52.466;13.436;2023-02-15T17:47:35;39.00;;;18.40;;
5149;SDS011;2593;52.466;13.436;2023-02-15T17:50:02;38.13;;;18.10;;
5149;SDS011;2593;52.466;13.436;2023-02-15T17:52:30;39.73;;;17.83;;
5149;SDS011;2593;52.466;13.436;2023-02-15T17:54:58;38.20;;;16.70;;
5149;SDS011;2593;52.466;13.436;2023-02-15T17:57:45;35.03;;;18.30;;
5149;SDS011;2593;52.466;13.436;2023-02-15T18:00:12;34.10;;;18.07;;
5149;SDS011;2593;52.466;13.436;2023-02-15T18:02:58;36.13;;;19.07;;
5149;SDS011;2593;52.466;13.436;2023-02-15T18:05:42;33.73;;;16.97;;
5149;SDS011;2593;52.466;13.436;2023-02-15T18:08:27;30.80;;;17.17;;
5149;SDS011;2593;52.466;13.436;2023-02-15T18:11:11;30.77;;;17.10;;
5149;SDS011;2593;52.466;13.436;2023-02-15T18:13:56;29.97;;;16.80;;
5149;SDS011;2593;52.466;13.436;2023-02-15T18:16:25;33.27;;;17.90;;
5149;SDS011;2593;52.466;13.436;2023-02-15T18:18:54;29.73;;;16.63;;
5149;SDS011;2593;52.466;13.436;2023-02-15T18:21:21;38.13;;;19.00;;
5149;SDS011;2593;52.466;13.436;2023-02-15T18:23:48;32.13;;;17.90;;
5149;SDS011;2593;52.466;13.436;2023-02-15T18:26:23;30.20;;;16.47;;
5149;SDS011;2593;52.466;13.436;2023-02-15T18:28:50;27.60;;;16.50;;
5149;SDS011;2593;52.466;13.436;2023-02-15T18:31:17;37.93;;;17.87;;
5149;SDS011;2593;52.466;13.436;2023-02-15T18:36:33;31.73;;;18.30;;